KIKK/IKK METAR and TAF weather

Enter ICAO airport designator
Station Type Date Time Source
KIKK METAR 2020/03/31 06:15 UTC NOAA

KIKK 310615Z AUTO 04008KT 10SM OVC055 05/03 A3011 RMK AO2 T00500027


Station Type Date Time Source
KIKK Decoded METAR 2020/03/31 06:15 UTC NOAA

Kankakee, Greater Kankakee Airport, IL, United States (KIKK) 41-04-17N 087-50-47W
Mar 31, 2020 - 02:15 AM EDT / 2020.03.31 0615 UTC
Wind: from the NE (040 degrees) at 9 MPH (8 KT):0
Visibility: 10 mile(s):0
Sky conditions: overcast
Temperature: 41.0 F (5.0 C)
Dew Point: 36.9 F (2.7 C)
Relative Humidity: 85%
Pressure (altimeter): 30.11 in. Hg (1019 hPa)
ob: KIKK 310615Z AUTO 04008KT 10SM OVC055 05/03 A3011 RMK AO2 T00500027
cycle: 6

Station Type Date Time Source
KIKK TAF UTC NOAA

Error!

Example: see airport list